Time;durP1;ratioP1;P1;durP2;ratioP2;P2;SDS_P1;SDS_P2;PMS_P1;PMS_P2;Temp;Humidity;BMP_temperature;BMP_pressure;BME280_temperature;BME280_humidity;BME280_pressure;Samples;Min_cycle;Max_cycle;Signal;HPM_P1;HPM_P2
2023/04/24 00:00:06;;;;;;;5.40;5.00;;;13.00;99.90;;;;;;6199940;28;20816;-63
2023/04/24 00:03:09;;;;;;;7.73;5.50;;;13.00;99.90;;;;;;6200802;28;20464;-64
2023/04/24 00:06:12;;;;;;;5.67;5.17;;;12.90;99.90;;;;;;6200612;28;20465;-63
2023/04/24 00:09:16;;;;;;;5.80;4.93;;;13.00;99.90;;;;;;6200053;28;20800;-63
2023/04/24 00:12:21;;;;;;;5.70;5.30;;;12.90;99.90;;;;;;6191110;28;20485;-63
2023/04/24 00:15:24;;;;;;;5.77;5.27;;;12.80;99.90;;;;;;6200199;28;20481;-63
2023/04/24 00:18:27;;;;;;;5.20;4.77;;;12.80;99.90;;;;;;6200111;28;20472;-63
2023/04/24 00:21:32;;;;;;;5.07;4.67;;;12.70;99.90;;;;;;6201382;28;20480;-63
2023/04/24 00:24:35;;;;;;;4.30;4.00;;;12.80;99.90;;;;;;6204071;28;20940;-64
2023/04/24 00:27:40;;;;;;;4.97;4.57;;;12.70;99.90;;;;;;6204216;28;20789;-64
2023/04/24 00:30:43;;;;;;;4.70;4.40;;;12.60;99.90;;;;;;6203920;28;20812;-64
2023/04/24 00:33:46;;;;;;;5.10;4.70;;;12.70;99.90;;;;;;6204174;28;20787;-64
2023/04/24 00:36:51;;;;;;;5.80;5.20;;;12.70;99.90;;;;;;6204177;28;20488;-64
2023/04/24 00:39:55;;;;;;;4.60;4.30;;;12.60;99.90;;;;;;6204435;28;20472;-64
2023/04/24 00:42:59;;;;;;;4.30;4.00;;;12.60;99.90;;;;;;6204159;28;20476;-63
2023/04/24 00:46:02;;;;;;;4.33;4.03;;;12.60;99.90;;;;;;6204368;28;20960;-63
2023/04/24 00:49:06;;;;;;;4.77;4.47;;;12.60;99.90;;;;;;6204421;28;20561;-63
2023/04/24 00:52:10;;;;;;;4.77;4.20;;;12.50;99.90;;;;;;6204286;28;20477;-63
2023/04/24 00:55:13;;;;;;;4.17;3.80;;;12.50;99.90;;;;;;6204027;28;20481;-63
2023/04/24 00:58:18;;;;;;;4.67;4.27;;;12.50;99.90;;;;;;6204027;28;20487;-63
2023/04/24 01:01:22;;;;;;;4.93;4.57;;;12.40;99.90;;;;;;6203359;28;20839;-63
2023/04/24 01:04:27;;;;;;;5.13;4.73;;;12.40;99.90;;;;;;6203775;28;20559;-63
2023/04/24 01:07:30;;;;;;;4.53;4.13;;;12.40;99.90;;;;;;6203275;28;20487;-63
2023/04/24 01:10:35;;;;;;;4.90;4.50;;;12.40;99.90;;;;;;6203382;28;20477;-63
2023/04/24 01:13:41;;;;;;;4.87;4.50;;;12.40;99.90;;;;;;6203679;28;20476;-63
2023/04/24 01:16:44;;;;;;;5.10;4.80;;;12.40;99.90;;;;;;6199087;28;20932;-63
2023/04/24 01:19:47;;;;;;;4.43;4.13;;;12.40;99.90;;;;;;6202767;28;20480;-63
2023/04/24 01:22:52;;;;;;;4.27;3.97;;;12.40;99.90;;;;;;6203217;28;20968;-63
2023/04/24 01:25:56;;;;;;;5.00;4.63;;;12.40;99.90;;;;;;6203229;28;20492;-63
2023/04/24 01:28:59;;;;;;;4.87;4.50;;;12.40;99.90;;;;;;6203005;28;20496;-63
2023/04/24 01:32:03;;;;;;;4.93;4.43;;;12.40;99.90;;;;;;6202885;28;20473;-63
2023/04/24 01:35:08;;;;;;;5.80;5.37;;;12.30;99.90;;;;;;6202995;28;20475;-63
2023/04/24 01:38:12;;;;;;;5.23;4.83;;;12.30;99.90;;;;;;6202699;28;20971;-63
2023/04/24 01:41:16;;;;;;;6.23;5.70;;;12.20;99.90;;;;;;6202716;28;20473;-63
2023/04/24 01:44:19;;;;;;;6.77;4.97;;;12.20;99.90;;;;;;6202778;28;20936;-63
2023/04/24 01:47:23;;;;;;;5.33;4.93;;;12.20;99.90;;;;;;6202769;28;20479;-63
2023/04/24 01:50:26;;;;;;;7.10;5.37;;;12.20;99.90;;;;;;6202247;28;20491;-63
2023/04/24 01:53:30;;;;;;;6.80;5.60;;;12.10;99.90;;;;;;6202229;28;20901;-63
2023/04/24 01:56:35;;;;;;;5.87;5.37;;;12.10;99.90;;;;;;6202406;28;20493;-63
2023/04/24 01:59:38;;;;;;;5.17;4.77;;;12.00;99.90;;;;;;6202476;28;20978;-63
2023/04/24 02:02:42;;;;;;;5.43;4.93;;;12.10;99.90;;;;;;6202563;28;20477;-63
2023/04/24 02:05:49;;;;;;;5.83;5.00;;;12.10;99.90;;;;;;6202000;28;20928;-63
2023/04/24 02:08:53;;;;;;;5.43;5.03;;;12.10;99.90;;;;;;6201891;28;20963;-63
2023/04/24 02:11:57;;;;;;;5.00;4.50;;;12.10;99.90;;;;;;6201846;28;20898;-63
2023/04/24 02:15:00;;;;;;;7.10;5.10;;;12.10;99.90;;;;;;6201625;28;20451;-64
2023/04/24 02:18:03;;;;;;;6.53;5.90;;;12.10;99.90;;;;;;6202114;28;20532;-63
2023/04/24 02:21:07;;;;;;;5.97;4.70;;;12.20;99.90;;;;;;6202007;28;20464;-63
2023/04/24 02:24:11;;;;;;;6.37;5.93;;;12.20;99.90;;;;;;6201584;28;20464;-63
2023/04/24 02:27:14;;;;;;;5.80;5.27;;;12.30;99.90;;;;;;6202163;28;20472;-63
2023/04/24 02:30:18;;;;;;;6.20;5.60;;;12.30;99.90;;;;;;6201462;28;20469;-63
2023/04/24 02:33:21;;;;;;;7.13;6.43;;;12.30;99.90;;;;;;6201611;28;20588;-63
2023/04/24 02:36:24;;;;;;;7.40;5.70;;;12.30;99.90;;;;;;6201642;28;20476;-63
2023/04/24 02:39:28;;;;;;;6.50;5.50;;;12.30;99.90;;;;;;6201260;28;20535;-63
2023/04/24 02:42:31;;;;;;;5.93;5.43;;;12.30;99.90;;;;;;6201786;28;20472;-63
2023/04/24 02:45:35;;;;;;;5.40;4.90;;;12.30;99.90;;;;;;6200784;28;20479;-63
2023/04/24 02:48:38;;;;;;;5.67;5.17;;;12.20;99.90;;;;;;6201570;28;20818;-63
2023/04/24 02:51:41;;;;;;;7.70;6.40;;;12.20;99.90;;;;;;6201093;28;20491;-63
2023/04/24 02:54:46;;;;;;;5.33;4.83;;;12.20;99.90;;;;;;6201253;28;20476;-63
2023/04/24 02:57:49;;;;;;;5.53;5.03;;;12.10;99.90;;;;;;6201076;28;20476;-63
2023/04/24 03:00:55;;;;;;;5.20;4.60;;;12.10;99.90;;;;;;6201108;28;20472;-63
2023/04/24 03:03:59;;;;;;;5.70;5.20;;;12.10;99.90;;;;;;6201468;28;20472;-63
2023/04/24 03:07:02;;;;;;;5.97;5.47;;;12.00;99.90;;;;;;6200960;28;20515;-63
2023/04/24 03:10:08;;;;;;;5.03;4.53;;;12.00;99.90;;;;;;6200887;28;20841;-63
2023/04/24 03:13:11;;;;;;;5.93;5.33;;;12.00;99.90;;;;;;6200605;28;20477;-63
2023/04/24 03:16:15;;;;;;;5.97;5.20;;;12.00;99.90;;;;;;6201265;28;20961;-63
2023/04/24 03:19:18;;;;;;;5.93;5.33;;;11.90;99.90;;;;;;6200319;28;20495;-63
2023/04/24 03:22:21;;;;;;;6.07;5.40;;;11.90;99.90;;;;;;6200368;28;20469;-63
2023/04/24 03:25:25;;;;;;;7.93;5.60;;;11.80;99.90;;;;;;6196161;28;20473;-63
2023/04/24 03:28:29;;;;;;;6.07;5.50;;;11.80;99.90;;;;;;6201125;28;20476;-63
2023/04/24 03:31:32;;;;;;;6.97;5.80;;;11.80;99.90;;;;;;6200632;28;20508;-63
2023/04/24 03:34:35;;;;;;;6.57;5.20;;;11.80;99.90;;;;;;6200723;28;20480;-63
2023/04/24 03:37:38;;;;;;;6.27;5.57;;;11.80;99.90;;;;;;6200490;28;20970;-63
2023/04/24 03:40:43;;;;;;;7.30;6.23;;;11.80;99.90;;;;;;6200516;28;20477;-63
2023/04/24 03:43:46;;;;;;;6.40;5.90;;;11.80;99.90;;;;;;6200613;28;20477;-63
2023/04/24 03:46:49;;;;;;;6.30;5.70;;;11.70;99.90;;;;;;6200588;28;20488;-63
2023/04/24 03:49:53;;;;;;;8.53;6.93;;;11.70;99.90;;;;;;6200406;28;20477;-63
2023/04/24 03:52:56;;;;;;;6.60;5.97;;;11.70;99.90;;;;;;6200538;28;20476;-63
2023/04/24 03:56:01;;;;;;;6.87;6.20;;;11.70;99.90;;;;;;6203075;28;20477;-63
2023/04/24 03:59:04;;;;;;;7.83;6.10;;;11.70;99.90;;;;;;6205187;28;20477;-63
2023/04/24 04:02:07;;;;;;;6.57;5.83;;;11.70;99.90;;;;;;6205339;28;20472;-63
2023/04/24 04:05:11;;;;;;;5.53;5.00;;;11.80;99.90;;;;;;6204745;28;20487;-63
2023/04/24 04:08:17;;;;;;;6.47;5.87;;;11.80;99.90;;;;;;6205204;28;20484;-62
2023/04/24 04:11:23;;;;;;;7.40;5.90;;;11.80;99.90;;;;;;6204526;28;20499;-62
2023/04/24 04:14:26;;;;;;;9.23;6.70;;;11.90;99.90;;;;;;6204976;28;20495;-62
2023/04/24 04:17:29;;;;;;;7.33;6.63;;;11.90;99.90;;;;;;6204963;28;20468;-62
2023/04/24 04:20:32;;;;;;;8.83;6.00;;;11.80;99.90;;;;;;6204610;28;20479;-62
2023/04/24 04:23:36;;;;;;;6.03;5.53;;;11.80;99.90;;;;;;6204491;28;20921;-62
2023/04/24 04:26:40;;;;;;;7.10;5.97;;;11.80;99.90;;;;;;6204699;28;20473;-62
2023/04/24 04:29:43;;;;;;;9.20;6.77;;;11.80;99.90;;;;;;6200549;28;20783;-62
2023/04/24 04:32:47;;;;;;;6.70;5.30;;;11.80;99.90;;;;;;6203780;28;20842;-63
2023/04/24 04:35:51;;;;;;;6.50;5.90;;;11.90;99.90;;;;;;6204773;28;20467;-62
2023/04/24 04:38:55;;;;;;;7.90;7.07;;;11.90;99.90;;;;;;6204325;28;20483;-63
2023/04/24 04:42:00;;;;;;;8.50;5.83;;;11.90;99.90;;;;;;6204616;28;20456;-63
2023/04/24 04:45:04;;;;;;;6.93;6.27;;;11.90;99.90;;;;;;6204330;28;20854;-63
2023/04/24 04:48:07;;;;;;;6.63;5.93;;;12.00;99.90;;;;;;6204537;28;20441;-63
2023/04/24 04:51:10;;;;;;;6.53;5.83;;;12.10;99.90;;;;;;6204187;28;20461;-62
2023/04/24 04:54:13;;;;;;;9.93;6.53;;;12.10;99.90;;;;;;6203984;28;20472;-62
2023/04/24 04:57:18;;;;;;;6.50;5.87;;;12.10;99.90;;;;;;6204034;28;20457;-63
2023/04/24 05:00:21;;;;;;;6.73;5.67;;;12.00;99.90;;;;;;6203735;28;20481;-63
2023/04/24 05:03:24;;;;;;;6.00;5.53;;;12.10;99.90;;;;;;6203388;28;20996;-63
2023/04/24 05:06:28;;;;;;;11.23;7.10;;;12.10;99.90;;;;;;6202917;28;20480;-62
2023/04/24 05:09:31;;;;;;;7.47;6.87;;;12.10;99.90;;;;;;6203259;28;20511;-63
2023/04/24 05:12:35;;;;;;;7.17;6.57;;;12.20;99.90;;;;;;6203106;28;20468;-64
2023/04/24 05:15:39;;;;;;;8.80;6.50;;;12.30;99.90;;;;;;6203301;28;20476;-63
2023/04/24 05:18:42;;;;;;;7.50;6.33;;;12.40;99.90;;;;;;6202780;28;20488;-63
2023/04/24 05:21:45;;;;;;;7.40;6.70;;;12.40;99.90;;;;;;6203979;28;20473;-63
2023/04/24 05:24:51;;;;;;;15.50;6.87;;;12.50;99.90;;;;;;6202995;28;20480;-62
2023/04/24 05:27:55;;;;;;;9.73;7.10;;;12.60;99.90;;;;;;6203332;28;20472;-62
2023/04/24 05:30:59;;;;;;;7.70;6.90;;;12.60;99.90;;;;;;6202447;28;20488;-62
2023/04/24 05:34:02;;;;;;;9.00;7.10;;;12.60;99.90;;;;;;6202548;28;21042;-62
2023/04/24 05:37:08;;;;;;;8.97;7.03;;;12.70;99.90;;;;;;6202908;28;20469;-63
2023/04/24 05:40:12;;;;;;;9.57;7.53;;;12.70;99.90;;;;;;6202564;28;20481;-63
2023/04/24 05:43:16;;;;;;;9.27;8.00;;;12.70;99.90;;;;;;6202559;28;20546;-63
2023/04/24 05:46:19;;;;;;;9.27;7.40;;;12.80;99.90;;;;;;6202999;28;20785;-63
2023/04/24 05:49:22;;;;;;;9.37;8.47;;;12.80;99.90;;;;;;6202568;28;20476;-63
2023/04/24 05:52:25;;;;;;;10.70;8.17;;;12.80;99.90;;;;;;6202551;28;20488;-63
2023/04/24 05:55:29;;;;;;;9.97;8.17;;;12.90;99.90;;;;;;6202731;28;20492;-65
2023/04/24 05:58:33;;;;;;;9.73;8.83;;;13.00;99.90;;;;;;6202459;28;20820;-62
2023/04/24 06:01:37;;;;;;;9.43;8.60;;;13.10;99.90;;;;;;6202211;28;20975;-62
2023/04/24 06:04:40;;;;;;;9.60;8.70;;;13.30;99.90;;;;;;6202300;28;20790;-62
2023/04/24 06:07:43;;;;;;;10.57;8.63;;;13.50;99.90;;;;;;6202745;28;20510;-63
2023/04/24 06:10:46;;;;;;;10.17;8.73;;;13.70;99.90;;;;;;6202324;28;20488;-63
2023/04/24 06:13:51;;;;;;;11.27;9.80;;;13.90;99.90;;;;;;6202101;28;20477;-63
2023/04/24 06:16:55;;;;;;;9.10;8.30;;;14.10;99.90;;;;;;6202031;28;20973;-63
2023/04/24 06:19:58;;;;;;;8.00;7.20;;;14.30;99.90;;;;;;6200875;28;20477;-63
2023/04/24 06:23:01;;;;;;;9.30;8.40;;;14.50;99.90;;;;;;6201285;28;21014;-63
2023/04/24 06:26:04;;;;;;;9.83;8.13;;;14.90;99.90;;;;;;6202061;28;20508;-63
2023/04/24 06:29:09;;;;;;;9.90;8.40;;;15.10;99.90;;;;;;6201881;28;20484;-62
2023/04/24 06:32:12;;;;;;;7.87;7.17;;;15.60;99.90;;;;;;6201448;28;20579;-63
2023/04/24 06:35:16;;;;;;;8.77;7.97;;;16.00;99.90;;;;;;6201757;28;20492;-63
2023/04/24 06:38:19;;;;;;;8.60;7.80;;;16.50;99.90;;;;;;6193051;28;20484;-62
2023/04/24 06:41:22;;;;;;;8.23;7.40;;;16.90;99.90;;;;;;6201619;28;20846;-62
2023/04/24 06:44:27;;;;;;;9.67;8.77;;;17.30;99.90;;;;;;6202122;28;20473;-63
2023/04/24 06:47:30;;;;;;;8.80;8.00;;;17.50;99.90;;;;;;6201907;28;20511;-62
2023/04/24 06:50:34;;;;;;;8.63;7.63;;;17.70;99.90;;;;;;6200986;28;20487;-63
2023/04/24 06:53:37;;;;;;;9.73;7.10;;;17.90;99.90;;;;;;6201701;28;20237;-63
2023/04/24 06:56:40;;;;;;;9.80;8.03;;;17.90;99.90;;;;;;6201185;28;20775;-62
2023/04/24 06:59:44;;;;;;;8.13;7.03;;;17.80;99.90;;;;;;6200989;28;20245;-62
2023/04/24 07:02:48;;;;;;;9.23;8.03;;;17.70;99.90;;;;;;6201015;28;20232;-62
2023/04/24 07:05:52;;;;;;;12.40;7.93;;;17.60;99.90;;;;;;6201489;28;20461;-63
2023/04/24 07:08:55;;;;;;;9.13;8.40;;;17.40;99.90;;;;;;6200683;28;20229;-63
2023/04/24 07:11:59;;;;;;;9.00;8.13;;;17.30;99.90;;;;;;6201598;28;20495;-63
2023/04/24 07:15:04;;;;;;;9.67;8.67;;;17.20;99.90;;;;;;6200882;28;20888;-63
2023/04/24 07:18:08;;;;;;;11.53;8.90;;;17.10;99.90;;;;;;6200756;28;20451;-63
2023/04/24 07:21:11;;;;;;;9.97;9.00;;;16.80;99.90;;;;;;6201164;28;20475;-63
2023/04/24 07:24:15;;;;;;;10.80;9.80;;;16.60;99.90;;;;;;6200824;28;20495;-62
2023/04/24 07:27:18;;;;;;;9.97;8.97;;;16.30;99.90;;;;;;6200956;28;20472;-63
2023/04/24 07:30:22;;;;;;;12.73;10.60;;;16.10;99.90;;;;;;6200583;28;20476;-62
2023/04/24 07:33:26;;;;;;;12.43;11.30;;;15.50;99.90;;;;;;6200314;28;20476;-62
2023/04/24 07:36:29;;;;;;;12.20;11.00;;;15.20;99.90;;;;;;6200532;28;20487;-62
2023/04/24 07:39:32;;;;;;;11.87;10.80;;;15.10;99.90;;;;;;6197617;28;20477;-63
2023/04/24 07:42:36;;;;;;;12.37;11.17;;;15.10;99.90;;;;;;6200693;28;20487;-63
2023/04/24 07:45:40;;;;;;;13.43;12.13;;;15.00;99.90;;;;;;6200750;28;20485;-63
2023/04/24 07:48:44;;;;;;;12.30;11.03;;;15.00;99.90;;;;;;6200065;28;20488;-63
2023/04/24 07:51:47;;;;;;;15.57;11.87;;;14.90;99.90;;;;;;6200617;28;20484;-63
2023/04/24 07:54:52;;;;;;;13.30;11.90;;;14.80;99.90;;;;;;6199565;28;20473;-63
2023/04/24 07:57:55;;;;;;;19.20;12.40;;;14.80;99.90;;;;;;6200960;28;20472;-63
2023/04/24 08:01:00;;;;;;;12.43;11.33;;;14.80;99.90;;;;;;6200646;28;20500;-63
2023/04/24 08:04:03;;;;;;;13.17;11.87;;;14.80;99.90;;;;;;6200690;28;20487;-63
2023/04/24 08:07:07;;;;;;;14.37;12.87;;;14.80;99.90;;;;;;6200465;28;20796;-63
2023/04/24 08:10:11;;;;;;;15.50;13.10;;;14.90;99.90;;;;;;6200516;28;20479;-63
2023/04/24 08:13:14;;;;;;;13.20;11.60;;;14.90;99.90;;;;;;6200409;28;20786;-63
2023/04/24 08:16:19;;;;;;;14.83;13.07;;;14.90;99.90;;;;;;6200289;28;20491;-63
2023/04/24 08:19:22;;;;;;;14.50;13.00;;;14.90;99.90;;;;;;6200290;28;20473;-63
2023/04/24 08:22:26;;;;;;;15.47;13.20;;;15.00;99.90;;;;;;6200136;28;20481;-63
2023/04/24 08:25:29;;;;;;;14.80;13.43;;;15.00;99.90;;;;;;6200343;28;20473;-63
2023/04/24 08:28:32;;;;;;;11.10;9.80;;;15.00;99.90;;;;;;6199923;28;20481;-64
2023/04/24 08:31:37;;;;;;;12.97;11.00;;;15.00;99.90;;;;;;6200362;28;20476;-63
2023/04/24 08:34:40;;;;;;;9.67;8.77;;;15.00;99.90;;;;;;6199971;28;20473;-63
2023/04/24 08:37:43;;;;;;;11.30;10.13;;;15.00;99.90;;;;;;6200071;28;20473;-63
2023/04/24 08:40:49;;;;;;;10.83;9.73;;;14.90;99.90;;;;;;6199878;28;20960;-63
2023/04/24 08:43:52;;;;;;;11.67;9.43;;;14.80;99.90;;;;;;6203556;28;20474;-62
2023/04/24 08:46:57;;;;;;;9.60;8.70;;;14.80;99.90;;;;;;6204383;28;20567;-63
2023/04/24 08:50:02;;;;;;;10.93;9.80;;;14.70;99.90;;;;;;6204369;28;20480;-64
2023/04/24 08:53:07;;;;;;;13.43;11.40;;;14.70;99.90;;;;;;6204031;28;20874;-63
2023/04/24 08:56:12;;;;;;;13.53;12.13;;;14.80;99.90;;;;;;6203796;28;20509;-63
2023/04/24 08:59:16;;;;;;;12.77;11.00;;;14.70;99.90;;;;;;6204086;28;20476;-63
2023/04/24 09:02:21;;;;;;;10.40;9.00;;;14.70;99.90;;;;;;6203872;28;20473;-63
2023/04/24 09:05:25;;;;;;;9.97;8.77;;;14.70;99.90;;;;;;6203759;28;20480;-64
2023/04/24 09:08:31;;;;;;;9.00;8.10;;;14.70;99.90;;;;;;6203783;28;20864;-63
2023/04/24 09:11:35;;;;;;;8.00;7.20;;;14.60;99.90;;;;;;6203707;28;20576;-64
2023/04/24 09:14:42;;;;;;;7.90;7.10;;;14.60;99.90;;;;;;6203288;28;20484;-63
2023/04/24 09:17:47;;;;;;;7.83;7.13;;;14.60;99.90;;;;;;6203526;28;20477;-63
2023/04/24 09:21:00;;;;;;;8.47;7.67;;;14.60;99.90;;;;;;6203545;28;20504;-64
2023/04/24 09:24:06;;;;;;;7.80;7.10;;;14.60;99.90;;;;;;6203650;28;20535;-62
2023/04/24 09:27:11;;;;;;;7.80;6.97;;;14.60;99.90;;;;;;6203937;28;20429;-63
2023/04/24 09:30:21;;;;;;;7.57;6.60;;;14.60;99.90;;;;;;6203318;28;20852;-63
2023/04/24 09:33:26;;;;;;;7.20;6.60;;;14.60;99.90;;;;;;6203078;28;20562;-63
2023/04/24 09:36:31;;;;;;;6.53;5.80;;;14.60;99.90;;;;;;6203388;28;20495;-63
2023/04/24 09:39:35;;;;;;;5.17;4.70;;;14.70;99.90;;;;;;6202914;28;20487;-63
2023/04/24 09:42:38;;;;;;;5.70;4.53;;;14.80;99.90;;;;;;6203024;28;20468;-63
2023/04/24 09:45:41;;;;;;;4.90;4.43;;;14.80;99.90;;;;;;6202757;28;20812;-63
2023/04/24 09:48:45;;;;;;;6.00;5.50;;;14.90;99.90;;;;;;6198289;28;20480;-63
2023/04/24 09:51:49;;;;;;;4.27;3.87;;;14.90;99.90;;;;;;6202409;28;20977;-64
2023/04/24 09:54:54;;;;;;;4.33;3.93;;;15.00;99.90;;;;;;6202175;28;20488;-63
2023/04/24 09:58:00;;;;;;;4.20;3.60;;;15.10;99.90;;;;;;6203192;28;20488;-63
2023/04/24 10:01:03;;;;;;;4.43;4.13;;;15.30;99.90;;;;;;6201791;28;20486;-62
2023/04/24 10:04:15;;;;;;;4.53;4.13;;;15.50;99.90;;;;;;6213389;28;20579;-61
2023/04/24 10:07:19;;;;;;;2.67;2.47;;;15.70;99.90;;;;;;6210082;28;20473;-61
2023/04/24 10:10:22;;;;;;;3.13;2.40;;;16.00;99.90;;;;;;6208852;28;20479;-60
2023/04/24 10:13:26;;;;;;;2.67;2.23;;;16.30;99.90;;;;;;6226875;28;20480;-62
2023/04/24 10:16:30;;;;;;;3.00;2.37;;;16.60;99.90;;;;;;6226579;28;20471;-60
2023/04/24 10:19:36;;;;;;;2.50;2.23;;;16.90;99.90;;;;;;6213613;28;21108;-60
2023/04/24 10:22:40;;;;;;;3.57;2.57;;;17.10;99.90;;;;;;6202525;28;20491;-61
2023/04/24 10:25:44;;;;;;;2.53;2.30;;;17.40;99.90;;;;;;6201914;28;20488;-61
2023/04/24 10:28:48;;;;;;;3.90;2.20;;;17.60;99.90;;;;;;6201913;28;20499;-61
2023/04/24 10:31:51;;;;;;;2.87;2.67;;;17.70;99.90;;;;;;6201385;28;20233;-61
2023/04/24 10:34:56;;;;;;;2.63;1.80;;;17.80;99.90;;;;;;6201306;28;20590;-62
2023/04/24 10:38:04;;;;;;;2.30;2.10;;;17.90;99.90;;;;;;6224003;28;20874;-62
2023/04/24 10:41:19;;;;;;;3.47;3.13;;;17.90;99.90;;;;;;6225609;28;20475;-62
2023/04/24 10:44:23;;;;;;;2.60;2.40;;;17.90;99.90;;;;;;6226197;28;20244;-63
2023/04/24 10:47:26;;;;;;;1.90;1.80;;;18.00;99.90;;;;;;6225581;28;20488;-63
2023/04/24 10:50:44;;;;;;;2.90;2.50;;;18.10;99.90;;;;;;6225655;28;20237;-62
2023/04/24 10:53:47;;;;;;;9.90;9.30;;;18.20;99.90;;;;;;6225759;28;20233;-63
2023/04/24 10:56:51;;;;;;;4.33;4.00;;;18.20;99.90;;;;;;6225579;28;20284;-62
2023/04/24 11:00:13;;;;;;;6.03;3.70;;;18.30;99.90;;;;;;6225645;28;20233;-63
2023/04/24 11:03:29;;;;;;;4.93;4.27;;;18.40;99.90;;;;;;6207306;28;20715;-61
2023/04/24 11:06:35;;;;;;;3.57;3.37;;;18.60;99.90;;;;;;6200899;28;20538;-62
2023/04/24 11:09:40;;;;;;;2.60;2.40;;;18.80;99.90;;;;;;6200680;28;20307;-62
2023/04/24 11:12:44;;;;;;;3.23;2.93;;;18.90;99.80;;;;;;6201345;28;20681;-61
2023/04/24 11:16:14;;;;;;;2.90;1.90;;;19.10;99.20;;;;;;6200688;28;20236;-61
2023/04/24 11:19:24;;;;;;;2.27;1.83;;;19.20;98.00;;;;;;6200598;28;20234;-62
2023/04/24 11:22:31;;;;;;;1.77;1.63;;;19.30;97.80;;;;;;6200941;28;20314;-60
2023/04/24 11:25:36;;;;;;;1.37;1.23;;;19.30;97.30;;;;;;6200769;28;20237;-60
2023/04/24 11:28:45;;;;;;;3.10;1.80;;;19.00;96.60;;;;;;6195809;28;20320;-60
2023/04/24 11:31:51;;;;;;;1.43;1.33;;;18.80;96.80;;;;;;6184438;28;20242;-62
2023/04/24 11:34:56;;;;;;;1.93;1.37;;;18.70;97.80;;;;;;6176277;28;20234;-62
2023/04/24 11:38:02;;;;;;;1.77;1.47;;;18.60;98.20;;;;;;6198562;28;20312;-62
2023/04/24 11:41:26;;;;;;;1.93;1.83;;;18.60;97.70;;;;;;6200682;28;20361;-60
2023/04/24 11:44:31;;;;;;;1.30;1.17;;;18.60;97.90;;;;;;6200315;28;20232;-60
2023/04/24 11:47:35;;;;;;;1.40;0.90;;;18.60;97.80;;;;;;6200066;28;20760;-63
2023/04/24 11:50:38;;;;;;;3.70;1.13;;;18.60;96.40;;;;;;6200350;28;20320;-62
2023/04/24 11:53:43;;;;;;;1.40;1.30;;;18.50;96.90;;;;;;6199651;28;20243;-63
2023/04/24 11:56:48;;;;;;;0.73;0.73;;;18.40;97.80;;;;;;6200599;28;20267;-60
2023/04/24 11:59:51;;;;;;;1.20;1.00;;;18.40;96.80;;;;;;6190440;28;20237;-61
2023/04/24 12:03:06;;;;;;;0.97;0.90;;;18.40;96.70;;;;;;6198470;28;20241;-62
2023/04/24 12:06:11;;;;;;;0.83;0.83;;;18.30;96.10;;;;;;6199929;28;20198;-62
2023/04/24 12:09:15;;;;;;;2.53;0.90;;;18.20;96.00;;;;;;6199033;28;20237;-62
2023/04/24 12:12:20;;;;;;;1.47;1.30;;;18.10;96.30;;;;;;6176274;28;20263;-62
2023/04/24 12:15:24;;;;;;;1.20;0.87;;;18.00;97.00;;;;;;6178044;28;20230;-61
2023/04/24 12:18:27;;;;;;;4.50;1.33;;;17.80;97.30;;;;;;6202581;28;20229;-61
2023/04/24 12:21:31;;;;;;;1.47;1.00;;;17.70;97.20;;;;;;6204699;28;20473;-62
2023/04/24 12:24:36;;;;;;;0.67;0.60;;;17.70;97.50;;;;;;6204096;28;20251;-61
2023/04/24 12:27:39;;;;;;;2.70;0.80;;;17.70;97.80;;;;;;6204340;28;20568;-62
2023/04/24 12:30:45;;;;;;;1.63;0.80;;;17.70;97.40;;;;;;6204091;28;20483;-61
2023/04/24 12:33:48;;;;;;;1.00;0.77;;;17.80;97.20;;;;;;6203940;28;20673;-60
2023/04/24 12:36:51;;;;;;;0.70;0.70;;;17.90;97.00;;;;;;6204063;28;20519;-61
2023/04/24 12:40:05;;;;;;;0.83;0.70;;;18.00;96.70;;;;;;6189625;28;20488;-60
2023/04/24 12:43:15;;;;;;;1.73;0.60;;;18.20;96.20;;;;;;6190336;28;20473;-61
2023/04/24 12:46:18;;;;;;;0.80;0.60;;;18.50;95.60;;;;;;6203858;28;20654;-63
2023/04/24 12:49:24;;;;;;;1.83;0.87;;;18.90;94.90;;;;;;6201835;28;20234;-62
2023/04/24 12:52:29;;;;;;;2.57;1.03;;;19.30;94.60;;;;;;6185732;28;20241;-64
2023/04/24 12:55:34;;;;;;;1.40;1.07;;;19.70;94.20;;;;;;6179765;28;20253;-62
2023/04/24 12:58:37;;;;;;;0.73;0.73;;;20.00;93.80;;;;;;6179562;28;20257;-60
2023/04/24 13:01:40;;;;;;;1.13;1.00;;;20.30;92.90;;;;;;6178122;28;20240;-67
2023/04/24 13:04:43;;;;;;;1.53;0.80;;;20.40;91.50;;;;;;6203584;28;20230;-60
2023/04/24 13:07:46;;;;;;;2.00;0.80;;;20.50;90.90;;;;;;6191457;28;20592;-62
2023/04/24 13:10:51;;;;;;;0.80;0.70;;;20.60;90.40;;;;;;6202713;28;20245;-62
2023/04/24 13:13:55;;;;;;;1.20;1.10;;;20.40;90.20;;;;;;6203183;28;20230;-60
2023/04/24 13:16:58;;;;;;;0.97;0.70;;;20.20;90.10;;;;;;6203137;28;20241;-62
2023/04/24 13:20:02;;;;;;;0.70;0.53;;;19.80;89.50;;;;;;6202803;28;20240;-61
2023/04/24 13:23:05;;;;;;;0.73;0.73;;;19.70;88.30;;;;;;6203637;28;20229;-61
2023/04/24 13:26:10;;;;;;;1.53;1.43;;;19.70;88.10;;;;;;6203061;28;20240;-61
2023/04/24 13:29:13;;;;;;;2.00;1.30;;;19.50;88.80;;;;;;6202476;28;20257;-61
2023/04/24 13:32:16;;;;;;;2.40;1.37;;;19.40;89.90;;;;;;6202899;28;20553;-61
2023/04/24 13:35:20;;;;;;;1.20;0.80;;;19.30;90.40;;;;;;6202398;28;20240;-61
2023/04/24 13:38:23;;;;;;;2.57;0.80;;;19.10;91.10;;;;;;6202349;28;20241;-62
2023/04/24 13:41:27;;;;;;;1.27;1.17;;;19.00;91.40;;;;;;6202515;28;20233;-63
2023/04/24 13:44:30;;;;;;;1.07;0.70;;;18.70;91.30;;;;;;6202731;28;20292;-62
2023/04/24 13:47:33;;;;;;;2.90;0.70;;;18.40;92.60;;;;;;6202448;28;20537;-63
2023/04/24 13:50:37;;;;;;;1.10;1.00;;;18.20;94.00;;;;;;6202573;28;20237;-63
2023/04/24 13:53:40;;;;;;;27.70;16.87;;;18.10;94.90;;;;;;6201909;28;20229;-62
2023/04/24 13:56:45;;;;;;;4.20;3.70;;;17.70;95.40;;;;;;6202116;28;20485;-62
2023/04/24 13:59:48;;;;;;;2.10;1.37;;;17.50;96.10;;;;;;6202220;28;20481;-62
2023/04/24 14:02:51;;;;;;;1.50;0.90;;;17.40;96.20;;;;;;6201808;28;20225;-60
2023/04/24 14:05:54;;;;;;;1.30;1.20;;;17.40;96.30;;;;;;6201945;28;20364;-61
2023/04/24 14:08:58;;;;;;;3.73;3.43;;;17.30;96.30;;;;;;6201993;28;20468;-60
2023/04/24 14:12:03;;;;;;;2.23;1.93;;;17.20;95.90;;;;;;6201837;28;20761;-62
2023/04/24 14:15:08;;;;;;;4.53;2.90;;;17.00;95.50;;;;;;6200560;28;20559;-62
2023/04/24 14:18:11;;;;;;;1.53;1.43;;;16.70;96.40;;;;;;6199294;28;20441;-62
2023/04/24 14:21:14;;;;;;;3.33;1.20;;;16.50;97.40;;;;;;6201921;28;20920;-63
2023/04/24 14:24:20;;;;;;;0.73;0.73;;;16.30;97.90;;;;;;6185261;28;20533;-61
2023/04/24 14:27:25;;;;;;;2.63;1.37;;;16.30;98.30;;;;;;6177851;28;20480;-62
2023/04/24 14:30:28;;;;;;;2.10;0.90;;;16.50;98.50;;;;;;6177390;28;20517;-61
2023/04/24 14:33:31;;;;;;;6.60;6.17;;;16.60;98.70;;;;;;6177617;28;20469;-62
2023/04/24 14:36:34;;;;;;;1.90;1.80;;;16.60;98.60;;;;;;6188434;28;20480;-63
2023/04/24 14:39:38;;;;;;;1.87;1.30;;;16.70;98.50;;;;;;6200760;28;20592;-63
2023/04/24 14:42:42;;;;;;;3.33;1.53;;;16.60;98.30;;;;;;6201645;28;20481;-64
2023/04/24 14:45:45;;;;;;;1.40;1.30;;;16.40;98.60;;;;;;6201427;28;20815;-63
2023/04/24 14:48:48;;;;;;;1.33;1.23;;;16.40;99.50;;;;;;6201628;28;20481;-63
2023/04/24 14:51:54;;;;;;;1.00;0.90;;;16.40;99.70;;;;;;6201700;28;20535;-63
2023/04/24 14:54:57;;;;;;;2.10;2.00;;;16.40;99.80;;;;;;6201271;28;20472;-64
2023/04/24 14:58:02;;;;;;;1.10;1.00;;;16.20;99.90;;;;;;6201300;28;20491;-63
2023/04/24 15:01:05;;;;;;;2.50;1.13;;;16.10;99.90;;;;;;6201092;28;20473;-65
2023/04/24 15:04:08;;;;;;;2.90;1.50;;;16.00;99.90;;;;;;6186487;28;20496;-63
2023/04/24 15:07:12;;;;;;;2.40;1.33;;;16.00;99.90;;;;;;6189214;28;20980;-62
2023/04/24 15:10:17;;;;;;;2.07;1.40;;;16.00;99.90;;;;;;6181021;28;20484;-61
2023/04/24 15:13:21;;;;;;;1.87;1.33;;;16.00;99.90;;;;;;6189445;28;20477;-61
2023/04/24 15:16:25;;;;;;;1.30;1.20;;;16.00;99.90;;;;;;6187122;28;20482;-62
2023/04/24 15:19:28;;;;;;;1.30;1.20;;;16.10;99.90;;;;;;6189855;28;20565;-64
2023/04/24 15:22:31;;;;;;;1.40;1.30;;;16.10;99.90;;;;;;6189278;28;20492;-62
2023/04/24 15:25:34;;;;;;;1.60;1.50;;;16.10;99.90;;;;;;6187541;28;20986;-63
2023/04/24 15:28:39;;;;;;;1.27;1.17;;;16.10;99.90;;;;;;6188026;28;20480;-63
2023/04/24 15:31:42;;;;;;;1.80;1.70;;;16.20;99.90;;;;;;6187893;28;20486;-62
2023/04/24 15:34:45;;;;;;;1.83;1.37;;;16.10;99.90;;;;;;6179108;28;20864;-62
2023/04/24 15:37:51;;;;;;;0.97;0.90;;;16.10;99.90;;;;;;6197171;28;20481;-63
2023/04/24 15:40:54;;;;;;;1.53;1.43;;;16.10;99.90;;;;;;6200671;28;20494;-64
2023/04/24 15:43:59;;;;;;;2.03;1.87;;;16.10;99.90;;;;;;6200300;28;20971;-63
2023/04/24 15:47:02;;;;;;;1.93;1.57;;;16.10;99.90;;;;;;6200836;28;20545;-64
2023/04/24 15:50:08;;;;;;;4.00;3.10;;;16.10;99.90;;;;;;6200270;28;20480;-63
2023/04/24 15:53:20;;;;;;;1.73;1.50;;;16.10;99.90;;;;;;6205114;28;21050;-63
2023/04/24 15:56:24;;;;;;;1.30;1.20;;;16.10;99.90;;;;;;6205365;28;20495;-64